createdAt,value
2022-08-27T00:01:49.250Z,9.07
2022-08-27T00:04:19.130Z,14.05
2022-08-27T00:06:47.370Z,12.65
2022-08-27T00:09:15.749Z,8.75
2022-08-27T00:11:44.728Z,10.10
2022-08-27T00:14:12.843Z,11.55
2022-08-27T00:16:41.041Z,9.30
2022-08-27T00:19:09.370Z,12.65
2022-08-27T00:21:39.005Z,9.40
2022-08-27T00:24:07.869Z,11.85
2022-08-27T00:26:39.107Z,8.23
2022-08-27T00:29:10.069Z,11.05
2022-08-27T00:31:38.218Z,8.52
2022-08-27T00:34:06.450Z,10.57
2022-08-27T00:36:36.287Z,8.85
2022-08-27T00:39:06.081Z,9.30
2022-08-27T00:41:35.037Z,12.02
2022-08-27T00:44:03.906Z,12.07
2022-08-27T00:46:37.877Z,10.27
2022-08-27T00:49:24.027Z,10.82
2022-08-27T00:51:57.352Z,10.18
2022-08-27T00:54:28.355Z,11.93
2022-08-27T00:56:57.274Z,12.35
2022-08-27T00:59:29.252Z,10.65
2022-08-27T01:02:15.330Z,12.55
2022-08-27T01:04:45.807Z,9.77
2022-08-27T01:07:15.189Z,12.82
2022-08-27T01:09:45.736Z,10.32
2022-08-27T01:12:14.194Z,12.38
2022-08-27T01:14:45.111Z,10.23
2022-08-27T01:17:14.856Z,9.77
2022-08-27T01:19:46.397Z,11.25
2022-08-27T01:24:55.337Z,7.65
2022-08-27T01:27:26.770Z,9.15
2022-08-27T01:29:55.316Z,11.15
2022-08-27T01:32:26.459Z,8.68
2022-08-27T01:34:55.102Z,13.88
2022-08-27T01:37:25.411Z,9.88
2022-08-27T01:39:59.289Z,10.60
2022-08-27T01:42:31.663Z,10.00
2022-08-27T01:45:05.774Z,11.70
2022-08-27T01:47:36.137Z,12.95
2022-08-27T01:50:06.238Z,7.53
2022-08-27T01:52:34.403Z,12.65
2022-08-27T01:55:05.423Z,8.43
2022-08-27T01:57:35.272Z,10.43
2022-08-27T02:00:04.814Z,17.95
2022-08-27T02:02:33.683Z,9.20
2022-08-27T02:05:01.895Z,10.05
2022-08-27T02:07:30.136Z,10.30
2022-08-27T02:09:58.300Z,11.13
2022-08-27T02:12:27.812Z,13.68
2022-08-27T02:14:55.916Z,8.07
2022-08-27T02:17:24.069Z,7.45
2022-08-27T02:19:53.297Z,11.13
2022-08-27T02:22:21.504Z,9.13
2022-08-27T02:24:49.704Z,8.52
2022-08-27T02:27:18.426Z,8.88
2022-08-27T02:29:49.712Z,8.05
2022-08-27T02:32:31.552Z,10.43
2022-08-27T02:35:01.262Z,9.32
2022-08-27T02:37:29.539Z,9.15
2022-08-27T02:39:57.684Z,8.90
2022-08-27T02:42:25.870Z,8.52
2022-08-27T02:44:55.492Z,7.30
2022-08-27T02:47:23.632Z,17.52
2022-08-27T02:49:52.179Z,8.88
2022-08-27T02:52:24.968Z,11.77
2022-08-27T02:54:53.760Z,11.85
2022-08-27T02:57:22.470Z,12.98
2022-08-27T02:59:51.159Z,12.55
2022-08-27T03:02:21.834Z,9.95
2022-08-27T03:04:50.188Z,6.63
2022-08-27T03:07:19.909Z,9.98
2022-08-27T03:09:48.049Z,10.38
2022-08-27T03:12:16.949Z,13.77
2022-08-27T03:14:45.978Z,9.80
2022-08-27T03:17:30.766Z,11.93
2022-08-27T03:20:02.009Z,9.23
2022-08-27T03:22:30.201Z,7.03
2022-08-27T03:24:58.394Z,8.32
2022-08-27T03:27:26.595Z,12.40
2022-08-27T03:29:54.759Z,7.55
2022-08-27T03:32:23.096Z,8.82
2022-08-27T03:34:51.313Z,9.23
2022-08-27T03:37:20.824Z,9.80
2022-08-27T03:39:48.953Z,7.05
2022-08-27T03:42:17.099Z,10.80
2022-08-27T03:44:45.250Z,11.20
2022-08-27T03:47:13.498Z,10.23
2022-08-27T03:49:41.807Z,8.63
2022-08-27T03:52:10.133Z,10.63
2022-08-27T03:54:39.964Z,9.38
2022-08-27T03:57:08.369Z,7.80
2022-08-27T03:59:36.573Z,9.90
2022-08-27T04:02:05.487Z,7.65
2022-08-27T04:04:33.930Z,12.05
2022-08-27T04:07:02.114Z,7.97
2022-08-27T04:09:30.266Z,11.75
2022-08-27T04:11:59.790Z,17.08
2022-08-27T04:14:27.958Z,9.68
2022-08-27T04:16:57.068Z,13.25
2022-08-27T04:19:28.141Z,10.20
2022-08-27T04:22:01.626Z,9.93
2022-08-27T04:24:31.778Z,10.38
2022-08-27T04:27:02.679Z,9.75
2022-08-27T04:29:31.807Z,9.10
2022-08-27T04:32:00.682Z,10.65
2022-08-27T04:34:28.788Z,8.65
2022-08-27T04:36:57.812Z,12.23
2022-08-27T04:39:27.251Z,12.48
2022-08-27T04:41:57.106Z,15.50
2022-08-27T04:44:27.944Z,9.80
2022-08-27T04:46:57.937Z,11.30
2022-08-27T04:49:27.362Z,13.30
2022-08-27T04:51:56.227Z,9.85
2022-08-27T04:54:32.212Z,9.02
2022-08-27T04:57:01.702Z,11.00
2022-08-27T04:59:31.292Z,9.63
2022-08-27T05:58:38.415Z,7.00
2022-08-27T08:14:03.511Z,3.20
2022-08-27T08:16:31.926Z,2.80
2022-08-27T08:19:00.579Z,2.60
2022-08-27T08:21:28.873Z,4.55
2022-08-27T08:23:56.998Z,4.15
2022-08-27T08:26:26.498Z,2.28
2022-08-27T08:28:54.666Z,3.03
2022-08-27T08:31:24.294Z,2.03
2022-08-27T08:33:52.908Z,2.78
2022-08-27T08:36:21.046Z,3.03
2022-08-27T08:38:49.483Z,2.53
2022-08-27T08:41:37.790Z,3.95
2022-08-27T08:44:14.336Z,3.78
2022-08-27T08:46:50.191Z,2.67
2022-08-27T08:49:31.150Z,3.67
2022-08-27T08:52:10.727Z,2.72
2022-08-27T08:54:57.684Z,2.53
2022-08-27T08:57:36.307Z,2.72
2022-08-27T09:00:12.236Z,2.88
2022-08-27T09:02:40.816Z,2.03
2022-08-27T09:05:11.532Z,2.50
2022-08-27T09:07:45.908Z,2.53
2022-08-27T09:10:24.456Z,2.40
2022-08-27T09:13:00.887Z,2.78
2022-08-27T09:15:32.845Z,4.03
2022-08-27T09:18:14.039Z,2.63
2022-08-27T09:20:46.246Z,3.70
2022-08-27T09:23:25.231Z,4.47
2022-08-27T09:25:53.354Z,3.22
2022-08-27T09:28:43.573Z,3.30
2022-08-27T09:31:16.074Z,3.05
2022-08-27T09:33:55.975Z,3.00
2022-08-27T09:36:25.876Z,3.70
2022-08-27T09:38:58.157Z,4.75
2022-08-27T09:41:31.712Z,4.97
2022-08-27T09:44:08.986Z,2.90
2022-08-27T09:46:37.080Z,3.65
2022-08-27T09:49:12.601Z,4.68
2022-08-27T09:51:43.257Z,3.50
2022-08-27T09:54:12.914Z,2.40
2022-08-27T09:56:48.343Z,3.53
2022-08-27T09:59:24.796Z,4.57
2022-08-27T10:01:56.856Z,3.72
2022-08-27T10:04:28.419Z,4.22
2022-08-27T10:06:56.657Z,5.78
2022-08-27T10:09:33.228Z,4.97
2022-08-27T10:12:07.815Z,4.53
2022-08-27T10:14:42.513Z,4.82
2022-08-27T10:17:18.469Z,4.10
2022-08-27T10:19:57.390Z,4.15
2022-08-27T10:22:37.353Z,4.43
2022-08-27T10:25:16.888Z,4.07
2022-08-27T10:27:55.265Z,4.30
2022-08-27T10:30:32.852Z,6.45
2022-08-27T10:33:11.536Z,4.07
2022-08-27T10:35:48.081Z,4.45
2022-08-27T10:38:25.851Z,7.80
2022-08-27T10:41:02.975Z,3.72
2022-08-27T10:44:05.382Z,4.85
2022-08-27T10:46:50.934Z,5.07
2022-08-27T10:49:29.004Z,4.68
2022-08-27T10:52:08.305Z,4.60
2022-08-27T10:54:40.998Z,5.60
2022-08-27T10:57:35.302Z,4.72
2022-08-27T11:00:11.776Z,5.22
2022-08-27T11:02:45.257Z,10.30
2022-08-27T11:05:18.722Z,3.78
2022-08-27T11:07:52.522Z,5.85
2022-08-27T11:10:27.566Z,5.25
2022-08-27T11:12:59.716Z,4.43
2022-08-27T11:15:31.163Z,3.67
2022-08-27T11:20:35.573Z,4.70
2022-08-27T11:23:08.091Z,3.67
2022-08-27T11:25:46.681Z,3.63
2022-08-27T11:28:15.357Z,3.58
2022-08-27T11:30:56.522Z,4.68
2022-08-27T11:33:34.572Z,3.22
2022-08-27T11:36:28.932Z,3.78
2022-08-27T11:39:04.441Z,3.65
2022-08-27T11:42:01.588Z,4.70
2022-08-27T11:44:33.106Z,5.07
2022-08-27T11:47:12.617Z,5.13
2022-08-27T11:49:49.174Z,4.80
2022-08-27T11:52:29.271Z,4.40
2022-08-27T11:55:12.724Z,4.85
2022-08-27T11:57:41.279Z,3.42
2022-08-27T12:00:20.587Z,3.90
2022-08-27T12:02:59.266Z,3.72
2022-08-27T12:05:39.160Z,4.00
2022-08-27T12:08:27.143Z,2.53
2022-08-27T12:11:09.524Z,3.53
2022-08-27T12:13:43.347Z,2.95
2022-08-27T12:16:25.252Z,3.20
2022-08-27T12:19:11.707Z,4.15
2022-08-27T12:21:52.409Z,5.15
2022-08-27T12:24:43.508Z,2.97
2022-08-27T12:27:38.328Z,3.47
2022-08-27T12:30:21.318Z,4.88
2022-08-27T12:32:52.564Z,2.92
2022-08-27T12:35:24.168Z,3.42
2022-08-27T12:37:57.035Z,2.72
2022-08-27T12:40:27.567Z,4.38
2022-08-27T12:43:07.899Z,3.88
2022-08-27T12:45:45.186Z,4.45
2022-08-27T12:48:13.623Z,3.28
2022-08-27T12:50:41.904Z,6.53
2022-08-27T12:53:25.236Z,3.50
2022-08-27T12:56:04.007Z,5.68
2022-08-27T12:58:44.835Z,3.28
2022-08-27T13:01:27.682Z,3.67
2022-08-27T13:03:57.111Z,4.55
2022-08-27T13:06:30.308Z,5.88
2022-08-27T13:09:03.063Z,2.83
2022-08-27T13:11:33.873Z,3.38
2022-08-27T13:14:11.230Z,6.15
2022-08-27T13:16:43.514Z,4.00
2022-08-27T13:19:26.111Z,2.58
2022-08-27T13:21:55.296Z,3.58
2022-08-27T13:24:32.239Z,3.97
2022-08-27T13:27:01.067Z,3.67
2022-08-27T13:29:29.598Z,3.63
2022-08-27T13:31:58.423Z,4.35
2022-08-27T13:34:29.351Z,4.13
2022-08-27T13:37:00.453Z,3.10
2022-08-27T13:39:29.983Z,2.70
2022-08-27T13:42:00.282Z,3.30
2022-08-27T13:44:33.601Z,4.70
2022-08-27T13:47:04.944Z,3.08
2022-08-27T13:49:39.693Z,3.03
2022-08-27T13:52:18.462Z,3.13
2022-08-27T13:54:50.254Z,3.30
2022-08-27T13:57:26.788Z,6.13
2022-08-27T13:59:55.436Z,2.63
2022-08-27T14:02:28.599Z,3.70
2022-08-27T14:05:11.541Z,2.80
2022-08-27T14:07:43.120Z,2.95
2022-08-27T14:10:32.425Z,4.97
2022-08-27T14:13:02.724Z,3.60
2022-08-27T14:15:34.449Z,3.40
2022-08-27T14:18:03.454Z,3.80
2022-08-27T14:20:31.756Z,3.13
2022-08-27T14:22:59.939Z,2.97
2022-08-27T14:25:29.526Z,2.63
2022-08-27T14:27:58.258Z,3.78
2022-08-27T14:30:29.365Z,3.80
2022-08-27T14:33:00.363Z,3.55
2022-08-27T14:35:29.564Z,2.97
2022-08-27T14:37:58.873Z,4.68
2022-08-27T14:40:27.236Z,3.28
2022-08-27T14:42:56.857Z,3.88
2022-08-27T14:45:25.234Z,3.42
2022-08-27T14:47:54.149Z,7.45
2022-08-27T14:50:30.207Z,5.00
2022-08-27T14:52:58.297Z,5.30
2022-08-27T14:55:29.498Z,4.03
2022-08-27T14:57:59.744Z,3.95
2022-08-27T15:00:30.547Z,3.92
2022-08-27T15:02:59.090Z,4.00
2022-08-27T15:05:28.322Z,3.60
2022-08-27T15:07:58.021Z,4.20
2022-08-27T15:10:26.863Z,4.13
2022-08-27T15:12:59.378Z,3.58
2022-08-27T15:15:27.500Z,3.30
2022-08-27T15:17:55.954Z,3.15
2022-08-27T15:20:25.850Z,3.05
2022-08-27T15:22:54.151Z,2.92
2022-08-27T15:25:22.750Z,3.95
2022-08-27T15:27:51.222Z,4.20
2022-08-27T15:30:26.396Z,3.90
2022-08-27T15:32:54.944Z,3.00
2022-08-27T15:35:26.531Z,4.40
2022-08-27T15:37:57.673Z,4.68
2022-08-27T15:40:27.653Z,3.42
